Time;durP1;ratioP1;P1;durP2;ratioP2;P2;SDS_P1;SDS_P2;PMS_P1;PMS_P2;Temp;Humidity;BMP_temperature;BMP_pressure;BME280_temperature;BME280_humidity;BME280_pressure;Samples;Min_cycle;Max_cycle;Signal;HPM_P1;HPM_P2
2022/07/11 00:01:04;;;;;;;5.27;3.30;;;17.50;99.90;;;;;;5033592;28;20217;-64
2022/07/11 00:03:31;;;;;;;6.67;3.43;;;17.60;99.90;;;;;;5033378;28;20342;-65
2022/07/11 00:05:58;;;;;;;6.90;3.30;;;17.50;99.90;;;;;;5034362;28;20740;-65
2022/07/11 00:08:25;;;;;;;5.60;3.50;;;17.40;99.90;;;;;;5042206;28;20205;-65
2022/07/11 00:10:53;;;;;;;5.47;2.90;;;17.40;99.90;;;;;;5048628;28;20200;-64
2022/07/11 00:13:20;;;;;;;5.40;3.20;;;17.30;99.90;;;;;;5041402;28;20201;-64
2022/07/11 00:15:47;;;;;;;5.53;3.30;;;17.30;99.90;;;;;;5034885;28;20657;-64
2022/07/11 00:18:14;;;;;;;7.13;3.10;;;17.30;99.90;;;;;;5042329;28;20297;-64
2022/07/11 00:20:41;;;;;;;3.83;2.80;;;17.20;99.90;;;;;;5033323;28;20631;-64
2022/07/11 00:23:08;;;;;;;4.93;3.10;;;17.30;99.90;;;;;;5033111;28;20303;-64
2022/07/11 00:25:35;;;;;;;3.57;2.90;;;17.30;99.90;;;;;;5033503;28;20216;-65
2022/07/11 00:28:03;;;;;;;4.27;3.00;;;17.30;99.90;;;;;;5032944;28;20286;-64
2022/07/11 00:30:30;;;;;;;4.53;3.03;;;17.30;99.90;;;;;;5052289;28;20292;-65
2022/07/11 00:32:57;;;;;;;4.27;2.90;;;17.30;99.90;;;;;;5053270;28;20209;-64
2022/07/11 00:35:24;;;;;;;3.33;2.90;;;17.20;99.90;;;;;;5052872;28;20324;-63
2022/07/11 00:37:50;;;;;;;5.10;2.83;;;17.10;99.90;;;;;;5053008;28;20281;-65
2022/07/11 00:40:17;;;;;;;5.23;3.20;;;17.10;99.90;;;;;;5047074;28;20205;-64
2022/07/11 00:42:44;;;;;;;4.10;3.20;;;17.10;99.90;;;;;;5033465;28;20212;-65
2022/07/11 00:45:12;;;;;;;5.50;3.10;;;17.00;99.90;;;;;;5032501;28;20242;-65
2022/07/11 00:47:39;;;;;;;3.47;2.87;;;17.00;99.90;;;;;;5033600;28;20284;-65
2022/07/11 00:50:07;;;;;;;4.73;3.00;;;17.00;99.90;;;;;;5033354;28;20736;-65
2022/07/11 00:52:35;;;;;;;3.43;3.13;;;17.00;99.90;;;;;;5033068;28;20582;-65
2022/07/11 00:55:04;;;;;;;5.60;3.30;;;17.00;99.90;;;;;;5033848;28;20221;-64
2022/07/11 00:57:31;;;;;;;4.17;3.43;;;17.00;99.90;;;;;;5034510;28;20226;-65
2022/07/11 00:59:58;;;;;;;4.20;3.33;;;17.00;99.90;;;;;;5032837;28;20215;-64
2022/07/11 01:02:26;;;;;;;4.83;3.60;;;16.90;99.90;;;;;;5032590;28;20212;-65
2022/07/11 01:04:54;;;;;;;6.63;3.17;;;16.90;99.90;;;;;;5034759;28;20284;-63
2022/07/11 01:07:21;;;;;;;5.10;3.80;;;16.90;99.90;;;;;;5033010;28;20291;-65
2022/07/11 01:09:48;;;;;;;7.77;4.37;;;16.90;99.90;;;;;;5052048;28;20361;-64
2022/07/11 01:12:15;;;;;;;7.37;5.00;;;16.90;99.90;;;;;;5051813;28;20296;-64
2022/07/11 01:14:52;;;;;;;10.83;5.13;;;16.80;99.90;;;;;;5052755;28;20294;-65
2022/07/11 01:17:19;;;;;;;6.90;5.00;;;16.70;99.90;;;;;;5043837;28;20215;-65
2022/07/11 01:19:47;;;;;;;8.93;5.70;;;16.60;99.90;;;;;;5032640;28;20257;-64
2022/07/11 01:22:15;;;;;;;10.13;5.83;;;16.60;99.90;;;;;;5031742;28;20297;-64
2022/07/11 01:24:44;;;;;;;11.60;5.97;;;16.50;99.90;;;;;;5031508;28;20202;-64
2022/07/11 01:27:11;;;;;;;12.17;6.53;;;16.50;99.90;;;;;;5043248;28;20206;-66
2022/07/11 01:29:39;;;;;;;16.90;7.63;;;16.50;99.90;;;;;;5047036;28;20205;-65
2022/07/11 01:32:06;;;;;;;13.13;7.57;;;16.50;99.90;;;;;;5032143;28;20637;-65
2022/07/11 01:34:33;;;;;;;15.63;8.13;;;16.50;99.90;;;;;;5032212;28;20317;-64
2022/07/11 01:37:00;;;;;;;20.23;8.73;;;16.50;99.90;;;;;;5035044;28;20638;-64
2022/07/11 01:39:29;;;;;;;16.80;8.03;;;16.50;99.90;;;;;;5032241;28;20294;-65
2022/07/11 01:41:57;;;;;;;16.63;8.53;;;16.50;99.90;;;;;;5032324;28;20211;-65
2022/07/11 01:44:24;;;;;;;17.60;8.90;;;16.50;99.90;;;;;;5032019;28;20306;-65
2022/07/11 01:46:51;;;;;;;17.90;8.77;;;16.50;99.90;;;;;;5032046;28;20705;-65
2022/07/11 01:49:18;;;;;;;18.10;9.30;;;16.60;99.90;;;;;;5031952;28;20203;-65
2022/07/11 01:51:46;;;;;;;20.30;9.37;;;16.60;99.90;;;;;;5032111;28;20868;-64
2022/07/11 01:54:13;;;;;;;17.23;9.07;;;16.60;99.90;;;;;;5031799;28;20628;-65
2022/07/11 01:56:39;;;;;;;24.33;9.40;;;16.60;99.90;;;;;;5030808;28;20314;-65
2022/07/11 01:59:08;;;;;;;19.00;9.83;;;16.60;99.90;;;;;;5031672;28;20564;-64
2022/07/11 02:01:35;;;;;;;21.33;9.00;;;16.50;99.90;;;;;;5032154;28;20212;-63
2022/07/11 02:04:02;;;;;;;20.30;9.33;;;16.50;99.90;;;;;;5051740;28;20305;-65
2022/07/11 02:06:29;;;;;;;21.73;10.43;;;16.40;99.90;;;;;;5051345;28;20255;-64
2022/07/11 02:08:56;;;;;;;18.87;9.60;;;16.40;99.90;;;;;;5037166;28;20290;-64
2022/07/11 02:11:23;;;;;;;20.27;10.03;;;16.40;99.90;;;;;;5031591;28;20816;-65
2022/07/11 02:13:50;;;;;;;22.13;10.90;;;16.40;99.90;;;;;;5031756;28;20548;-63
2022/07/11 02:16:19;;;;;;;22.40;11.03;;;16.40;99.90;;;;;;5031649;28;20300;-64
2022/07/11 02:18:45;;;;;;;21.27;9.93;;;16.40;99.90;;;;;;5031361;28;20229;-65
2022/07/11 02:21:13;;;;;;;19.73;9.53;;;16.40;99.90;;;;;;5033510;28;20628;-65
2022/07/11 02:23:40;;;;;;;20.40;10.50;;;16.40;99.90;;;;;;5031929;28;20228;-65
2022/07/11 02:26:07;;;;;;;23.00;11.00;;;16.50;99.90;;;;;;5030963;28;20198;-64
2022/07/11 02:28:36;;;;;;;21.60;10.73;;;16.60;99.90;;;;;;5031672;28;20733;-65
2022/07/11 02:31:03;;;;;;;22.80;11.27;;;16.60;99.90;;;;;;5031675;28;20709;-64
2022/07/11 02:33:32;;;;;;;28.13;12.13;;;16.60;99.90;;;;;;5031262;28;20670;-64
2022/07/11 02:35:59;;;;;;;22.37;11.83;;;16.70;99.90;;;;;;5031327;28;20242;-65
2022/07/11 02:38:27;;;;;;;28.40;13.30;;;16.70;99.90;;;;;;5031374;28;20226;-65
2022/07/11 02:40:54;;;;;;;30.17;13.60;;;16.70;99.90;;;;;;5031833;28;20210;-65
2022/07/11 02:43:21;;;;;;;23.37;13.03;;;16.80;99.90;;;;;;5031602;28;20735;-64
2022/07/11 02:45:48;;;;;;;24.13;13.40;;;16.80;99.90;;;;;;5031373;28;20248;-65
2022/07/11 02:48:15;;;;;;;27.40;14.10;;;16.80;99.90;;;;;;5030844;28;20312;-64
2022/07/11 02:50:43;;;;;;;26.40;13.77;;;16.80;99.90;;;;;;5031559;28;20293;-64
2022/07/11 02:53:10;;;;;;;28.10;14.70;;;16.80;99.90;;;;;;5031536;28;20261;-66
2022/07/11 02:55:37;;;;;;;35.60;15.03;;;16.80;99.90;;;;;;5031700;28;20279;-65
2022/07/11 02:58:04;;;;;;;29.70;14.47;;;16.90;99.90;;;;;;5031378;28;20225;-65
2022/07/11 03:00:31;;;;;;;31.70;14.83;;;16.80;99.90;;;;;;5030970;28;20297;-64
2022/07/11 03:02:58;;;;;;;33.90;15.97;;;16.80;99.90;;;;;;5030370;28;20635;-65
2022/07/11 03:05:25;;;;;;;31.13;14.87;;;16.80;99.90;;;;;;5031532;28;20293;-66
2022/07/11 03:07:54;;;;;;;26.67;13.60;;;16.80;99.90;;;;;;5031481;28;20209;-67
2022/07/11 03:10:23;;;;;;;33.90;15.03;;;16.90;99.90;;;;;;5035227;28;20674;-66
2022/07/11 03:12:49;;;;;;;30.23;15.13;;;16.90;99.90;;;;;;5035107;28;20280;-65
2022/07/11 03:15:16;;;;;;;30.20;15.37;;;16.80;99.90;;;;;;5032818;28;20210;-65
2022/07/11 03:17:43;;;;;;;32.93;16.00;;;16.80;99.90;;;;;;5048695;28;20318;-66
2022/07/11 03:20:11;;;;;;;31.80;16.73;;;16.70;99.90;;;;;;5054810;28;20734;-66
2022/07/11 03:22:38;;;;;;;34.63;15.53;;;16.70;99.90;;;;;;5055164;28;20312;-66
2022/07/11 03:25:08;;;;;;;31.53;15.80;;;16.70;99.90;;;;;;5054599;28;20205;-65
2022/07/11 03:27:35;;;;;;;35.03;16.93;;;16.70;99.90;;;;;;5054676;28;20624;-64
2022/07/11 03:30:03;;;;;;;33.90;16.23;;;16.70;99.90;;;;;;5043598;28;20286;-64
2022/07/11 03:32:29;;;;;;;33.73;16.70;;;16.80;99.90;;;;;;5034406;28;20277;-64
2022/07/11 03:37:41;;;;;;;31.23;15.27;;;16.80;99.90;;;;;;5034475;28;20695;-68
2022/07/11 03:40:11;;;;;;;34.93;15.67;;;16.70;99.90;;;;;;5033882;28;20218;-66
2022/07/11 03:42:37;;;;;;;29.57;13.83;;;16.70;99.90;;;;;;5033925;28;20261;-64
2022/07/11 03:45:05;;;;;;;27.43;13.27;;;16.70;99.90;;;;;;5034443;28;20211;-66
2022/07/11 03:47:33;;;;;;;23.10;12.73;;;16.70;99.90;;;;;;5033938;28;20288;-64
2022/07/11 03:50:00;;;;;;;27.40;12.73;;;16.80;99.90;;;;;;5035701;28;20237;-65
2022/07/11 03:52:27;;;;;;;25.13;12.30;;;16.90;99.90;;;;;;5042441;28;20211;-65
2022/07/11 03:54:54;;;;;;;23.70;11.27;;;17.00;99.90;;;;;;5053532;28;20241;-62
2022/07/11 03:57:22;;;;;;;21.23;10.67;;;17.00;99.90;;;;;;5053904;28;20388;-66
2022/07/11 03:59:49;;;;;;;23.43;10.97;;;17.10;99.90;;;;;;5052275;28;20212;-65
2022/07/11 04:02:16;;;;;;;19.10;10.00;;;17.10;99.90;;;;;;5053734;28;20202;-66
2022/07/11 04:04:43;;;;;;;22.43;10.03;;;17.00;99.90;;;;;;5053538;28;20298;-67
2022/07/11 04:07:10;;;;;;;17.90;9.53;;;17.10;99.90;;;;;;5053717;28;20573;-65
2022/07/11 04:09:36;;;;;;;17.93;8.63;;;17.10;99.90;;;;;;5053734;28;20584;-65
2022/07/11 04:12:04;;;;;;;16.07;8.70;;;17.10;99.90;;;;;;5053656;28;20295;-68
2022/07/11 04:14:32;;;;;;;15.77;9.27;;;17.10;99.90;;;;;;5051673;28;20211;-66
2022/07/11 04:16:59;;;;;;;19.87;9.97;;;17.10;99.90;;;;;;5053345;28;20229;-64
2022/07/11 04:19:26;;;;;;;21.70;9.97;;;17.10;99.90;;;;;;5053073;28;20571;-65
2022/07/11 04:21:53;;;;;;;19.77;9.53;;;17.00;99.90;;;;;;5052909;28;20688;-64
2022/07/11 04:24:19;;;;;;;17.17;9.87;;;17.00;99.90;;;;;;5052971;28;20286;-66
2022/07/11 04:26:46;;;;;;;14.47;9.10;;;17.00;99.90;;;;;;5053283;28;20294;-64
2022/07/11 04:29:13;;;;;;;18.27;9.50;;;17.10;99.90;;;;;;5052150;28;20539;-65
2022/07/11 04:31:42;;;;;;;21.43;10.10;;;17.10;99.90;;;;;;5053265;28;20305;-66
2022/07/11 04:34:09;;;;;;;18.90;9.40;;;17.10;99.90;;;;;;5052993;28;20206;-64
2022/07/11 04:36:36;;;;;;;20.40;9.77;;;17.10;99.90;;;;;;5053240;28;20293;-65
2022/07/11 04:39:02;;;;;;;22.63;9.53;;;17.20;99.90;;;;;;5052932;28;20234;-64
2022/07/11 04:41:29;;;;;;;17.50;9.23;;;17.20;99.90;;;;;;5053183;28;20209;-64
2022/07/11 04:43:56;;;;;;;19.17;9.80;;;17.20;99.90;;;;;;5049796;28;20211;-65
2022/07/11 04:46:23;;;;;;;16.70;8.90;;;17.30;99.90;;;;;;5050916;28;20576;-67
2022/07/11 04:48:52;;;;;;;21.37;9.33;;;17.30;99.90;;;;;;5052720;28;20208;-65
2022/07/11 04:51:19;;;;;;;15.10;8.23;;;17.40;99.90;;;;;;5052849;28;20294;-63
2022/07/11 04:53:46;;;;;;;18.47;9.20;;;17.50;99.90;;;;;;5052546;28;20244;-66
2022/07/11 04:56:13;;;;;;;17.50;9.03;;;17.50;99.90;;;;;;5052844;28;20207;-67
2022/07/11 04:58:39;;;;;;;21.30;9.30;;;17.60;99.90;;;;;;5053255;28;20258;-62
2022/07/11 05:01:07;;;;;;;20.07;9.67;;;17.50;99.90;;;;;;5050576;28;20640;-64
2022/07/11 05:03:34;;;;;;;16.33;8.77;;;17.50;99.90;;;;;;5052988;28;20212;-65
2022/07/11 05:06:03;;;;;;;20.73;8.97;;;17.50;99.90;;;;;;5052614;28;20201;-65
2022/07/11 05:08:30;;;;;;;20.07;8.97;;;17.40;99.90;;;;;;5052723;28;20297;-66
2022/07/11 05:10:57;;;;;;;20.40;9.20;;;17.40;99.90;;;;;;5052290;28;20230;-66
2022/07/11 05:13:24;;;;;;;17.70;9.30;;;17.40;99.90;;;;;;5052904;28;20208;-64
2022/07/11 05:15:51;;;;;;;18.33;9.07;;;17.50;99.90;;;;;;5034318;28;20313;-66
2022/07/11 05:18:18;;;;;;;17.43;8.60;;;17.50;99.90;;;;;;5033029;28;20235;-66
2022/07/11 05:20:45;;;;;;;19.23;9.10;;;17.50;99.90;;;;;;5032263;28;20372;-64
2022/07/11 05:23:13;;;;;;;20.63;9.77;;;17.60;99.90;;;;;;5032625;28;20545;-65
2022/07/11 05:25:40;;;;;;;17.73;9.20;;;17.70;99.90;;;;;;5032554;28;20290;-65
2022/07/11 05:28:07;;;;;;;14.50;8.23;;;17.80;99.90;;;;;;5032635;28;20686;-65
2022/07/11 05:30:34;;;;;;;20.97;9.23;;;17.80;99.90;;;;;;5031900;28;20237;-65
2022/07/11 05:33:01;;;;;;;19.53;8.73;;;17.90;99.90;;;;;;5030555;28;20219;-65
2022/07/11 05:35:28;;;;;;;14.97;8.60;;;17.90;99.90;;;;;;5044313;28;20716;-65
2022/07/11 05:37:55;;;;;;;17.30;8.80;;;18.00;99.90;;;;;;5051032;28;20315;-66
2022/07/11 05:40:23;;;;;;;17.40;9.20;;;18.00;99.90;;;;;;5052101;28;20270;-65
2022/07/11 05:42:50;;;;;;;16.67;9.00;;;18.10;99.90;;;;;;5052553;28;20303;-65
2022/07/11 05:45:17;;;;;;;15.70;8.03;;;18.20;99.90;;;;;;5052197;28;20298;-65
2022/07/11 05:47:44;;;;;;;13.93;8.60;;;18.30;99.90;;;;;;5052098;28;20262;-67
2022/07/11 05:50:11;;;;;;;19.07;8.23;;;18.50;99.90;;;;;;5050002;28;20302;-66
2022/07/11 05:52:38;;;;;;;15.53;8.03;;;18.50;99.90;;;;;;5034648;28;20202;-66
2022/07/11 05:55:06;;;;;;;13.67;7.70;;;18.60;99.90;;;;;;5040455;28;20214;-67
2022/07/11 05:57:34;;;;;;;15.97;8.03;;;18.70;99.90;;;;;;5051340;28;20295;-67
2022/07/11 06:00:01;;;;;;;20.33;8.27;;;18.70;99.90;;;;;;5046050;28;20205;-66
2022/07/11 06:02:27;;;;;;;14.30;7.73;;;18.80;99.90;;;;;;5052189;28;20208;-65
2022/07/11 06:04:54;;;;;;;18.83;8.50;;;18.90;99.90;;;;;;5051935;28;20292;-67
2022/07/11 06:10:06;;;;;;;13.90;6.90;;;19.10;99.90;;;;;;5034724;28;20204;-66
2022/07/11 06:12:34;;;;;;;13.80;6.53;;;19.20;99.90;;;;;;5031199;28;20288;-66
2022/07/11 06:15:01;;;;;;;12.93;7.07;;;19.30;99.90;;;;;;5031918;28;20641;-65
2022/07/11 06:17:28;;;;;;;12.90;6.70;;;19.40;99.90;;;;;;5031154;28;20221;-67
2022/07/11 06:19:55;;;;;;;14.33;6.90;;;19.50;99.90;;;;;;5031775;28;20225;-66
2022/07/11 06:22:22;;;;;;;11.20;6.40;;;19.60;99.90;;;;;;5032598;28;20296;-66
2022/07/11 06:24:49;;;;;;;13.30;6.17;;;19.60;99.90;;;;;;5051355;28;20292;-68
2022/07/11 06:27:16;;;;;;;14.93;6.93;;;19.80;99.90;;;;;;5051641;28;20296;-67
2022/07/11 06:29:44;;;;;;;13.80;7.10;;;19.90;99.90;;;;;;5033821;28;20250;-66
2022/07/11 06:32:11;;;;;;;12.33;6.40;;;20.00;99.90;;;;;;5035030;28;20295;-68
2022/07/11 06:34:38;;;;;;;12.93;5.67;;;20.10;99.90;;;;;;5051211;28;20238;-68
2022/07/11 06:37:05;;;;;;;11.80;5.80;;;20.20;99.90;;;;;;5051772;28;20729;-66
2022/07/11 06:39:32;;;;;;;14.43;6.73;;;20.30;99.90;;;;;;5050922;28;20258;-64
2022/07/11 06:41:59;;;;;;;14.23;6.33;;;20.40;99.90;;;;;;5050970;28;20259;-66
2022/07/11 06:44:26;;;;;;;16.50;6.20;;;20.50;99.90;;;;;;5050505;28;20200;-64
2022/07/11 06:46:54;;;;;;;12.83;6.27;;;20.60;99.90;;;;;;5036021;28;20207;-65
2022/07/11 06:49:21;;;;;;;8.23;5.23;;;20.70;99.90;;;;;;5035052;28;20208;-64
2022/07/11 06:51:48;;;;;;;13.27;5.90;;;20.80;99.90;;;;;;5035435;28;20576;-65
2022/07/11 06:54:15;;;;;;;12.37;6.13;;;20.90;99.90;;;;;;5036268;28;20591;-67
2022/07/11 06:56:41;;;;;;;10.53;5.37;;;20.90;99.90;;;;;;5045342;28;20197;-66
2022/07/11 06:59:08;;;;;;;12.43;5.40;;;21.00;99.90;;;;;;5044107;28;20256;-65
2022/07/11 07:01:35;;;;;;;10.13;5.13;;;21.10;99.90;;;;;;5046920;28;20255;-66
2022/07/11 07:04:03;;;;;;;6.50;4.40;;;21.20;99.90;;;;;;5043154;28;20230;-65
2022/07/11 07:06:30;;;;;;;8.63;3.90;;;21.20;99.90;;;;;;5053312;28;20206;-65
2022/07/11 07:08:57;;;;;;;6.53;4.23;;;21.20;99.90;;;;;;5049670;28;20282;-64
2022/07/11 07:11:24;;;;;;;8.73;4.03;;;21.20;99.90;;;;;;5039063;28;20209;-66
2022/07/11 07:13:51;;;;;;;8.40;3.97;;;21.20;99.90;;;;;;5055062;28;20312;-65
2022/07/11 07:16:18;;;;;;;7.77;3.60;;;21.30;99.90;;;;;;5054925;28;20675;-66
2022/07/11 07:18:46;;;;;;;10.37;4.40;;;21.50;99.90;;;;;;5054702;28;20647;-66
2022/07/11 07:21:15;;;;;;;7.87;4.10;;;21.50;99.90;;;;;;5048822;28;20237;-66
2022/07/11 07:23:41;;;;;;;10.90;4.37;;;21.50;99.90;;;;;;5034356;28;20202;-65
2022/07/11 07:26:08;;;;;;;7.77;4.17;;;21.60;99.90;;;;;;5034627;28;20272;-65
2022/07/11 07:28:37;;;;;;;7.33;4.00;;;21.70;99.90;;;;;;5034683;28;20293;-65
2022/07/11 07:31:04;;;;;;;10.93;4.57;;;21.80;99.90;;;;;;5034446;28;20241;-66
2022/07/11 07:33:31;;;;;;;6.93;4.03;;;21.90;99.90;;;;;;5046333;28;20623;-66
2022/07/11 07:35:58;;;;;;;9.17;4.00;;;21.90;99.90;;;;;;5054203;28;20283;-66
2022/07/11 07:38:27;;;;;;;9.60;3.87;;;21.90;99.90;;;;;;5054308;28;20229;-65
2022/07/11 07:40:54;;;;;;;6.30;3.63;;;21.90;99.90;;;;;;5054078;28;20233;-65
2022/07/11 07:43:21;;;;;;;6.40;3.17;;;21.90;99.90;;;;;;5054081;28;20264;-65
2022/07/11 07:45:48;;;;;;;9.83;3.27;;;21.80;99.90;;;;;;5047020;28;20711;-66
2022/07/11 07:48:15;;;;;;;6.67;2.97;;;21.90;99.90;;;;;;5034554;28;20217;-66
2022/07/11 07:50:42;;;;;;;6.00;3.43;;;21.80;99.90;;;;;;5044878;28;20205;-66
2022/07/11 07:53:09;;;;;;;7.43;3.30;;;21.90;99.90;;;;;;5053580;28;20301;-68
2022/07/11 07:55:37;;;;;;;7.97;3.30;;;22.00;99.90;;;;;;5053692;28;20809;-66
2022/07/11 07:58:04;;;;;;;8.63;3.10;;;22.10;99.90;;;;;;5048240;28;20207;-68
2022/07/11 08:03:15;;;;;;;6.07;3.07;;;22.30;99.90;;;;;;5042638;28;20259;-66
2022/07/11 08:05:42;;;;;;;6.07;3.20;;;22.30;99.90;;;;;;5033973;28;20366;-66
2022/07/11 08:08:10;;;;;;;6.07;3.50;;;22.20;99.90;;;;;;5033998;28;20217;-68
2022/07/11 08:10:39;;;;;;;5.93;3.17;;;22.30;99.90;;;;;;5053375;28;20195;-67
2022/07/11 08:13:06;;;;;;;6.87;2.70;;;22.30;99.90;;;;;;5053684;28;20629;-66
2022/07/11 08:15:33;;;;;;;7.10;3.53;;;22.30;99.90;;;;;;5035902;28;20288;-66
2022/07/11 08:18:00;;;;;;;7.63;3.47;;;22.40;99.90;;;;;;5044572;28;20299;-69
2022/07/11 08:20:26;;;;;;;6.53;3.50;;;22.50;99.90;;;;;;5049575;28;20319;-65
2022/07/11 08:22:53;;;;;;;11.60;3.43;;;22.60;99.90;;;;;;5040727;28;20202;-67
2022/07/11 08:25:21;;;;;;;6.27;3.00;;;22.70;99.90;;;;;;5052470;28;20292;-65
2022/07/11 08:27:49;;;;;;;7.20;3.17;;;22.40;99.90;;;;;;5053407;28;20198;-66
2022/07/11 08:30:16;;;;;;;5.10;3.03;;;22.40;99.90;;;;;;5050549;28;20720;-68
2022/07/11 08:32:43;;;;;;;7.63;3.03;;;22.40;99.90;;;;;;5042094;28;20281;-66
2022/07/11 08:35:11;;;;;;;7.50;3.13;;;22.40;99.90;;;;;;5052807;28;20233;-66
2022/07/11 08:37:38;;;;;;;6.40;3.27;;;22.50;99.90;;;;;;5051718;28;20226;-66
2022/07/11 08:40:06;;;;;;;5.20;2.47;;;22.60;99.90;;;;;;5053119;28;20280;-65
2022/07/11 08:42:41;;;;;;;4.30;2.27;;;22.80;99.90;;;;;;5053028;28;20207;-66
2022/07/11 08:45:12;;;;;;;4.27;2.30;;;22.80;99.90;;;;;;5052677;28;20204;-67
2022/07/11 08:47:40;;;;;;;6.43;2.50;;;22.80;99.90;;;;;;5052872;28;20198;-67
2022/07/11 08:50:08;;;;;;;4.47;2.37;;;22.80;99.90;;;;;;5052861;28;20207;-66
2022/07/11 08:52:35;;;;;;;3.80;2.30;;;22.80;99.90;;;;;;5053026;28;20227;-66
2022/07/11 08:55:06;;;;;;;3.80;2.40;;;22.80;99.90;;;;;;5035194;28;20301;-66
2022/07/11 08:57:34;;;;;;;5.37;2.70;;;22.80;99.90;;;;;;5032922;28;20201;-69
2022/07/11 09:00:03;;;;;;;4.40;2.23;;;22.80;99.90;;;;;;5032888;28;20589;-67
2022/07/11 09:02:34;;;;;;;5.10;2.87;;;22.90;99.90;;;;;;5037451;28;20656;-68
2022/07/11 09:05:02;;;;;;;5.30;3.00;;;22.90;99.90;;;;;;5052953;28;20705;-66
2022/07/11 09:07:30;;;;;;;5.00;2.67;;;22.90;99.90;;;;;;5052293;28;20217;-67
2022/07/11 09:09:57;;;;;;;4.83;2.57;;;23.10;99.90;;;;;;5052203;28;20205;-65
2022/07/11 09:12:24;;;;;;;7.33;3.10;;;23.00;99.90;;;;;;5032435;28;20207;-66
2022/07/11 09:14:52;;;;;;;4.13;2.40;;;23.00;99.90;;;;;;5040716;28;20286;-65
2022/07/11 09:17:27;;;;;;;6.93;2.70;;;22.90;99.90;;;;;;5051702;28;20213;-67
2022/07/11 09:19:55;;;;;;;5.30;3.10;;;23.00;99.90;;;;;;5051868;28;20214;-65
2022/07/11 09:25:21;;;;;;;7.07;3.50;;;23.20;99.90;;;;;;5051858;28;20223;-67
2022/07/11 09:27:49;;;;;;;6.57;3.47;;;23.20;99.90;;;;;;5040313;28;20224;-64
2022/07/11 09:30:25;;;;;;;5.37;2.90;;;23.10;99.90;;;;;;5044391;28;20204;-65
2022/07/11 09:33:02;;;;;;;8.40;3.80;;;23.00;99.90;;;;;;5051479;28;20247;-65
2022/07/11 09:35:33;;;;;;;6.17;3.43;;;22.90;99.90;;;;;;5051652;28;20275;-65
2022/07/11 09:38:03;;;;;;;6.50;2.93;;;22.70;99.90;;;;;;5052120;28;20641;-66
2022/07/11 09:40:30;;;;;;;8.67;4.20;;;22.60;99.90;;;;;;5052071;28;20640;-67
2022/07/11 09:42:58;;;;;;;7.77;3.60;;;22.20;99.90;;;;;;5051555;28;20285;-65
2022/07/11 09:45:27;;;;;;;7.03;3.60;;;22.10;99.90;;;;;;5042986;28;20655;-66
2022/07/11 09:47:55;;;;;;;9.80;3.67;;;21.90;99.90;;;;;;5051205;28;20201;-66
2022/07/11 09:50:24;;;;;;;6.77;3.43;;;21.80;99.90;;;;;;5051480;28;20275;-65
2022/07/11 09:53:04;;;;;;;7.67;3.90;;;21.70;99.90;;;;;;5051524;28;20259;-66
2022/07/11 09:55:31;;;;;;;8.83;3.57;;;21.60;99.90;;;;;;5051550;28;20626;-65
2022/07/11 09:57:58;;;;;;;7.10;3.70;;;21.50;99.90;;;;;;5050912;28;20301;-66
2022/07/11 10:00:25;;;;;;;8.47;4.17;;;21.50;99.90;;;;;;5051323;28;20218;-68
2022/07/11 10:02:54;;;;;;;9.70;4.17;;;21.50;99.90;;;;;;5035279;28;20267;-68
2022/07/11 10:05:22;;;;;;;9.37;4.17;;;21.30;99.90;;;;;;5042745;28;20279;-68
2022/07/11 10:07:49;;;;;;;9.33;3.77;;;21.10;99.90;;;;;;5051527;28;20205;-65
2022/07/11 10:10:17;;;;;;;8.27;4.30;;;20.80;99.90;;;;;;5050892;28;20323;-68
2022/07/11 10:12:46;;;;;;;10.00;4.70;;;20.50;99.90;;;;;;5046632;28;20213;-68
2022/07/11 10:15:16;;;;;;;9.47;4.17;;;20.40;99.90;;;;;;5040004;28;20648;-69
2022/07/11 10:17:51;;;;;;;7.33;4.13;;;20.30;99.90;;;;;;5048161;28;20236;-68
2022/07/11 10:20:24;;;;;;;6.13;3.80;;;20.20;99.90;;;;;;5038989;28;20211;-70
2022/07/11 10:22:57;;;;;;;8.83;3.83;;;20.10;99.90;;;;;;5035541;28;20227;-69
2022/07/11 10:25:32;;;;;;;6.47;4.13;;;20.10;99.90;;;;;;5034773;28;20209;-69
2022/07/11 10:28:17;;;;;;;8.80;4.23;;;20.00;99.90;;;;;;5034918;28;20205;-67
2022/07/11 10:30:49;;;;;;;8.77;3.77;;;19.80;99.90;;;;;;5035967;28;20274;-68
2022/07/11 10:33:17;;;;;;;7.83;4.00;;;19.70;99.90;;;;;;5035080;28;20194;-68
2022/07/11 10:35:45;;;;;;;7.80;4.00;;;19.60;99.90;;;;;;5035302;28;20706;-66
2022/07/11 10:38:14;;;;;;;7.30;4.13;;;19.50;99.90;;;;;;5050399;28;20742;-72
2022/07/11 10:40:50;;;;;;;7.80;4.07;;;19.30;99.90;;;;;;5055245;28;20683;-68
2022/07/11 10:43:35;;;;;;;6.97;3.70;;;19.30;99.90;;;;;;5054489;28;20277;-67
2022/07/11 10:46:04;;;;;;;11.70;5.17;;;19.20;99.90;;;;;;5055038;28;20201;-66
2022/07/11 10:48:33;;;;;;;11.63;5.20;;;19.20;99.90;;;;;;5054992;28;20215;-65
2022/07/11 10:51:09;;;;;;;12.53;5.83;;;19.10;99.90;;;;;;5055401;28;20295;-68
2022/07/11 10:53:44;;;;;;;9.77;4.60;;;19.10;99.90;;;;;;5047617;28;20288;-66
2022/07/11 10:56:21;;;;;;;9.10;3.90;;;18.90;99.90;;;;;;5054547;28;20241;-66
2022/07/11 10:59:00;;;;;;;9.60;4.30;;;18.80;99.90;;;;;;5054931;28;20194;-66
2022/07/11 11:01:28;;;;;;;16.10;4.57;;;18.60;99.90;;;;;;5055197;28;20667;-65
2022/07/11 11:04:39;;;;;;;9.13;4.80;;;18.50;99.90;;;;;;5054585;28;20198;-67
2022/07/11 11:07:05;;;;;;;10.50;5.43;;;18.40;99.90;;;;;;5039268;28;20205;-69
2022/07/11 11:09:39;;;;;;;11.50;5.50;;;18.30;99.90;;;;;;5049514;28;20300;-69
2022/07/11 11:12:07;;;;;;;14.33;5.67;;;18.20;99.90;;;;;;5035068;28;20217;-66
2022/07/11 11:14:34;;;;;;;9.57;5.10;;;18.20;99.90;;;;;;5043768;28;20197;-67
2022/07/11 11:17:35;;;;;;;10.40;5.70;;;18.20;99.90;;;;;;5054282;28;20319;-66
2022/07/11 11:20:02;;;;;;;10.97;5.27;;;18.20;99.90;;;;;;5043346;28;20273;-66
2022/07/11 11:22:29;;;;;;;8.00;5.03;;;18.20;99.90;;;;;;5055143;28;20241;-67
2022/07/11 11:24:58;;;;;;;11.10;5.17;;;18.20;99.90;;;;;;5054548;28;20614;-67
2022/07/11 11:27:27;;;;;;;9.47;4.80;;;18.30;99.90;;;;;;5045893;28;20646;-67
2022/07/11 11:29:56;;;;;;;8.60;4.40;;;18.20;99.90;;;;;;5054170;28;20236;-66
2022/07/11 11:32:30;;;;;;;9.37;4.80;;;18.20;99.90;;;;;;5054481;28;20287;-68
2022/07/11 11:34:58;;;;;;;10.60;4.90;;;18.20;99.90;;;;;;5053852;28;20235;-66
2022/07/11 11:37:26;;;;;;;10.23;4.20;;;18.30;99.90;;;;;;5054697;28;20726;-66
2022/07/11 11:39:59;;;;;;;8.33;4.30;;;18.40;99.90;;;;;;5054533;28;20687;-67
2022/07/11 11:42:30;;;;;;;8.47;4.47;;;18.40;99.90;;;;;;5054410;28;20284;-65
2022/07/11 11:45:00;;;;;;;11.73;4.80;;;18.50;99.90;;;;;;5037345;28;20235;-66
2022/07/11 11:47:30;;;;;;;9.00;4.50;;;18.50;99.90;;;;;;5047971;28;20206;-65
2022/07/11 11:49:57;;;;;;;8.47;4.20;;;18.60;99.90;;;;;;5054455;28;20595;-68
2022/07/11 11:52:24;;;;;;;7.50;3.83;;;18.70;99.90;;;;;;5054407;28;20350;-66
2022/07/11 11:54:53;;;;;;;6.80;3.77;;;18.70;99.90;;;;;;5053902;28;20235;-67
2022/07/11 11:57:22;;;;;;;7.83;3.90;;;18.80;99.90;;;;;;5053348;28;20209;-65
2022/07/11 11:59:51;;;;;;;7.57;4.03;;;18.80;99.90;;;;;;5053743;28;20228;-66
2022/07/11 12:02:26;;;;;;;6.93;4.43;;;18.90;99.90;;;;;;5034535;28;20217;-66
2022/07/11 12:04:52;;;;;;;6.07;3.67;;;18.90;99.90;;;;;;5035620;28;20210;-66
2022/07/11 12:07:26;;;;;;;8.40;4.10;;;18.90;99.90;;;;;;5053810;28;20230;-67
2022/07/11 12:09:55;;;;;;;8.27;4.70;;;19.00;99.90;;;;;;5053748;28;20190;-67
2022/07/11 12:15:26;;;;;;;7.43;3.67;;;19.20;99.90;;;;;;5048653;28;20276;-66
2022/07/11 12:17:56;;;;;;;6.50;3.50;;;19.30;99.90;;;;;;5052896;28;20221;-67
2022/07/11 12:20:37;;;;;;;5.17;3.37;;;19.30;99.90;;;;;;5053678;28;20316;-66
2022/07/11 12:23:06;;;;;;;7.07;3.27;;;19.30;99.90;;;;;;5053893;28;20728;-66
2022/07/11 12:25:33;;;;;;;6.80;3.30;;;19.30;99.90;;;;;;5053523;28;20302;-66
2022/07/11 12:28:00;;;;;;;5.80;3.67;;;19.30;99.90;;;;;;5053665;28;20253;-64
2022/07/11 12:30:28;;;;;;;6.17;3.63;;;19.30;99.90;;;;;;5053711;28;20290;-66
2022/07/11 12:33:14;;;;;;;5.23;3.30;;;19.30;99.90;;;;;;5053371;28;20688;-65
2022/07/11 12:35:56;;;;;;;5.77;3.60;;;19.30;99.90;;;;;;5037976;28;20278;-65
2022/07/11 12:38:23;;;;;;;5.13;3.13;;;19.40;99.90;;;;;;5033343;28;20253;-64
2022/07/11 12:41:00;;;;;;;4.00;3.40;;;19.50;99.90;;;;;;5032127;28;20318;-65
2022/07/11 12:46:35;;;;;;;5.60;3.87;;;19.60;99.90;;;;;;5048324;28;20271;-64
2022/07/11 12:49:03;;;;;;;8.60;4.87;;;19.60;99.90;;;;;;5047256;28;20229;-64
2022/07/11 12:51:34;;;;;;;6.13;3.63;;;19.60;99.90;;;;;;5037110;28;20304;-63
2022/07/11 12:54:03;;;;;;;6.10;3.67;;;19.60;99.90;;;;;;5033449;28;20651;-65
2022/07/11 12:56:31;;;;;;;6.77;4.13;;;19.70;99.90;;;;;;5047278;28;20205;-66
2022/07/11 12:58:57;;;;;;;5.57;3.40;;;19.80;99.90;;;;;;5052991;28;20297;-63
2022/07/11 13:01:25;;;;;;;6.13;3.43;;;19.90;99.90;;;;;;5052626;28;20322;-62
2022/07/11 13:03:53;;;;;;;5.70;3.70;;;19.90;99.90;;;;;;5052130;28;20225;-63